createdAt,value
2017-11-21T00:01:29.153Z,70.20
2017-11-21T00:03:56.732Z,70.20
2017-11-21T00:06:24.254Z,70.60
2017-11-21T00:08:51.748Z,70.90
2017-11-21T00:16:16.992Z,70.60
2017-11-21T00:18:44.493Z,70.70
2017-11-21T00:23:40.889Z,70.50
2017-11-21T00:26:08.449Z,70.30
2017-11-21T00:28:37.456Z,70.70
2017-11-21T00:31:05.736Z,70.70
2017-11-21T00:33:34.747Z,70.30
2017-11-21T00:36:03.028Z,70.00
2017-11-21T00:38:32.047Z,69.50
2017-11-21T00:40:59.580Z,69.60
2017-11-21T00:43:27.105Z,69.50
2017-11-21T00:45:54.650Z,69.80
2017-11-21T00:48:22.537Z,69.90
2017-11-21T00:50:51.175Z,71.10
2017-11-21T00:53:18.712Z,70.30
2017-11-21T00:55:46.210Z,70.20
2017-11-21T00:58:13.893Z,70.30
2017-11-21T01:00:41.561Z,70.40
2017-11-21T01:03:09.078Z,70.30
2017-11-21T01:05:37.732Z,70.30
2017-11-21T01:08:05.361Z,70.00
2017-11-21T01:10:32.856Z,70.30
2017-11-21T01:13:01.884Z,70.40
2017-11-21T01:15:29.380Z,70.50
2017-11-21T01:17:57.311Z,70.40
2017-11-21T01:20:24.809Z,71.00
2017-11-21T01:22:53.890Z,71.70
2017-11-21T01:25:21.390Z,72.20
2017-11-21T01:27:48.912Z,73.00
2017-11-21T01:30:17.192Z,73.30
2017-11-21T01:35:13.682Z,74.00
2017-11-21T01:37:41.200Z,74.30
2017-11-21T01:40:09.808Z,74.60
2017-11-21T01:42:37.345Z,75.10
2017-11-21T01:45:06.579Z,75.20
2017-11-21T01:47:34.127Z,75.50
2017-11-21T01:50:02.508Z,75.60
2017-11-21T01:52:30.044Z,75.90
2017-11-21T01:54:57.540Z,75.80
2017-11-21T01:57:25.049Z,75.90
2017-11-21T01:59:52.990Z,76.10
2017-11-21T02:02:20.591Z,76.30
2017-11-21T02:04:48.120Z,76.90
2017-11-21T02:07:16.523Z,77.60
2017-11-21T02:09:44.049Z,77.20
2017-11-21T02:12:11.947Z,77.50
2017-11-21T02:14:40.972Z,77.50
2017-11-21T02:17:08.468Z,77.40
2017-11-21T02:19:36.000Z,77.70
2017-11-21T02:22:04.189Z,78.00
2017-11-21T02:24:31.700Z,78.00
2017-11-21T02:26:59.614Z,78.20
2017-11-21T02:29:27.889Z,78.20
2017-11-21T02:34:25.776Z,78.00
2017-11-21T02:36:53.318Z,78.40
2017-11-21T02:39:20.824Z,78.70
2017-11-21T02:41:48.350Z,78.90
2017-11-21T02:44:16.980Z,79.20
2017-11-21T02:46:44.696Z,79.50
2017-11-21T02:54:10.777Z,79.40
2017-11-21T02:56:38.710Z,79.50
2017-11-21T02:59:06.353Z,79.90
2017-11-21T03:01:33.884Z,79.70
2017-11-21T03:04:02.173Z,80.50
2017-11-21T03:06:30.072Z,80.00
2017-11-21T03:08:57.615Z,80.10
2017-11-21T03:11:25.161Z,80.00
2017-11-21T03:13:53.552Z,80.10
2017-11-21T03:16:21.047Z,80.20
2017-11-21T03:18:49.892Z,80.40
2017-11-21T03:21:29.272Z,80.40
2017-11-21T03:24:09.117Z,80.30
2017-11-21T03:26:39.479Z,80.30
2017-11-21T03:29:07.150Z,80.50
2017-11-21T03:31:34.666Z,80.50
2017-11-21T03:34:02.949Z,81.20
2017-11-21T03:36:32.178Z,80.70
2017-11-21T03:38:59.712Z,80.60
2017-11-21T03:41:27.293Z,80.80
2017-11-21T03:43:55.228Z,81.00
2017-11-21T03:46:22.796Z,80.80
2017-11-21T03:48:50.316Z,80.80
2017-11-21T03:51:17.817Z,80.60
2017-11-21T03:53:45.376Z,80.70
2017-11-21T03:56:13.022Z,80.70
2017-11-21T03:58:40.696Z,81.00
2017-11-21T04:01:08.216Z,81.30
2017-11-21T04:03:35.802Z,81.50
2017-11-21T04:06:03.312Z,81.70
2017-11-21T04:08:31.617Z,82.10
2017-11-21T04:10:59.544Z,81.20
2017-11-21T04:13:28.572Z,82.00
2017-11-21T04:15:56.136Z,81.50
2017-11-21T04:18:25.153Z,81.40
2017-11-21T04:20:52.686Z,81.60
2017-11-21T04:23:20.184Z,81.70
2017-11-21T04:25:47.699Z,81.50
2017-11-21T04:28:15.198Z,81.50
2017-11-21T04:30:42.715Z,81.40
2017-11-21T04:33:10.624Z,81.00
2017-11-21T04:35:38.155Z,80.80
2017-11-21T04:38:05.648Z,80.60
2017-11-21T04:40:33.168Z,80.70
2017-11-21T04:43:00.660Z,80.40
2017-11-21T04:45:28.944Z,80.90
2017-11-21T04:47:56.448Z,80.10
2017-11-21T04:50:23.949Z,80.00
2017-11-21T04:52:52.232Z,80.60
2017-11-21T04:55:19.746Z,79.90
2017-11-21T04:57:47.276Z,79.90
2017-11-21T05:00:14.790Z,79.50
2017-11-21T05:02:42.321Z,79.80
2017-11-21T05:05:09.829Z,79.70
2017-11-21T05:07:38.479Z,79.70
2017-11-21T05:10:07.485Z,79.60
2017-11-21T05:12:35.018Z,79.70
2017-11-21T05:15:03.648Z,79.50
2017-11-21T05:17:31.167Z,79.00
2017-11-21T05:19:59.067Z,79.50
2017-11-21T05:22:26.576Z,79.50
2017-11-21T05:24:55.312Z,79.70
2017-11-21T05:27:23.620Z,79.40
2017-11-21T05:29:51.134Z,79.40
2017-11-21T05:32:30.604Z,79.50
2017-11-21T05:34:58.100Z,79.50
2017-11-21T05:37:25.640Z,79.80
2017-11-21T05:39:54.272Z,79.80
2017-11-21T05:42:21.776Z,79.60
2017-11-21T05:44:49.688Z,79.60
2017-11-21T05:47:19.455Z,79.40
2017-11-21T05:54:45.268Z,78.80
2017-11-21T05:57:12.768Z,78.80
2017-11-21T05:59:40.334Z,78.80
2017-11-21T06:02:08.606Z,78.90
2017-11-21T06:04:36.140Z,79.10
2017-11-21T06:07:04.037Z,79.00
2017-11-21T06:09:31.557Z,78.70
2017-11-21T06:11:59.052Z,78.90
2017-11-21T06:14:27.732Z,78.80
2017-11-21T06:16:56.028Z,79.10
2017-11-21T06:19:23.933Z,78.20
2017-11-21T06:21:52.220Z,78.40
2017-11-21T06:24:19.732Z,78.30
2017-11-21T06:26:47.256Z,78.10
2017-11-21T06:29:15.159Z,78.00
2017-11-21T06:31:42.683Z,78.10
2017-11-21T06:34:10.183Z,77.90
2017-11-21T06:36:37.720Z,77.60
2017-11-21T06:39:05.226Z,77.10
2017-11-21T06:44:01.633Z,77.30
2017-11-21T06:46:29.176Z,77.30
2017-11-21T06:48:57.072Z,76.40
2017-11-21T06:51:25.377Z,76.50
2017-11-21T06:53:53.011Z,76.60
2017-11-21T06:56:20.504Z,76.70
2017-11-21T06:58:48.124Z,76.60
2017-11-21T07:01:16.382Z,76.10
2017-11-21T07:03:43.904Z,76.30
2017-11-21T07:06:11.392Z,76.40
2017-11-21T07:08:39.668Z,76.70
2017-11-21T07:11:07.564Z,76.50
2017-11-21T07:13:35.472Z,76.00
2017-11-21T07:21:01.991Z,76.20
2017-11-21T07:23:30.444Z,76.00
2017-11-21T07:25:59.586Z,75.90
2017-11-21T07:28:27.203Z,76.20
2017-11-21T07:30:54.711Z,76.40
2017-11-21T07:33:22.217Z,76.10
2017-11-21T07:35:50.169Z,75.70
2017-11-21T07:38:17.825Z,76.20
2017-11-21T07:40:45.489Z,76.00
2017-11-21T07:43:13.764Z,75.80
2017-11-21T07:45:42.040Z,75.70
2017-11-21T07:48:09.736Z,75.50
2017-11-21T07:50:37.255Z,75.50
2017-11-21T07:53:05.908Z,75.80
2017-11-21T07:55:34.218Z,75.30
2017-11-21T07:58:01.716Z,75.00
2017-11-21T08:00:30.736Z,75.00
2017-11-21T08:02:58.643Z,73.80
2017-11-21T08:05:26.168Z,73.90
2017-11-21T08:07:54.089Z,74.20
2017-11-21T08:10:21.593Z,73.40
2017-11-21T08:12:49.115Z,73.00
2017-11-21T08:15:16.616Z,73.00
2017-11-21T08:17:44.135Z,73.40
2017-11-21T08:20:12.426Z,73.40
2017-11-21T08:22:39.968Z,72.60
2017-11-21T08:25:07.600Z,72.50
2017-11-21T08:27:35.546Z,72.20
2017-11-21T08:30:03.469Z,71.30
2017-11-21T08:32:31.379Z,71.70
2017-11-21T08:35:00.420Z,71.20
2017-11-21T08:37:28.401Z,70.40
2017-11-21T08:39:55.937Z,70.80
2017-11-21T08:42:24.212Z,70.40
2017-11-21T08:44:52.212Z,69.80
2017-11-21T08:47:19.722Z,69.50
2017-11-21T08:49:48.952Z,69.30
2017-11-21T08:52:16.901Z,69.40
2017-11-21T08:54:45.181Z,68.50
2017-11-21T08:57:13.449Z,69.00
2017-11-21T08:59:41.356Z,69.30
2017-11-21T09:02:08.852Z,69.50
2017-11-21T09:04:36.373Z,69.20
2017-11-21T09:07:04.648Z,69.00
2017-11-21T09:09:32.175Z,69.50
2017-11-21T09:11:59.719Z,70.00
2017-11-21T09:14:27.732Z,70.10
2017-11-21T09:16:55.247Z,70.60
2017-11-21T09:19:22.908Z,70.60
2017-11-21T09:21:50.436Z,68.60
2017-11-21T09:24:18.834Z,71.20
2017-11-21T09:26:47.531Z,71.30
2017-11-21T09:29:15.807Z,70.60
2017-11-21T09:31:44.107Z,70.50
2017-11-21T09:34:11.610Z,70.20
2017-11-21T09:36:39.534Z,70.60
2017-11-21T09:39:07.050Z,71.20
2017-11-21T09:41:34.572Z,70.90
2017-11-21T09:44:02.837Z,71.50
2017-11-21T09:46:31.246Z,71.00
2017-11-21T09:48:58.888Z,68.90
2017-11-21T09:51:26.407Z,69.70
2017-11-21T09:53:56.470Z,69.30
2017-11-21T09:56:25.152Z,69.10
2017-11-21T09:58:52.811Z,69.20
2017-11-21T10:01:20.328Z,69.00
2017-11-21T10:03:48.616Z,69.70
2017-11-21T10:06:17.740Z,69.30
2017-11-21T10:08:45.269Z,69.40
2017-11-21T10:11:12.756Z,68.70
2017-11-21T10:16:09.166Z,68.30
2017-11-21T10:18:36.664Z,68.50
2017-11-21T10:21:04.182Z,68.30
2017-11-21T10:23:31.704Z,68.00
2017-11-21T10:25:59.301Z,68.00
2017-11-21T10:28:26.970Z,67.40
2017-11-21T10:30:54.905Z,66.90
2017-11-21T10:33:23.181Z,67.70
2017-11-21T10:35:50.702Z,66.80
2017-11-21T10:38:18.204Z,66.10
2017-11-21T10:40:45.805Z,66.20
2017-11-21T10:43:13.316Z,66.50
2017-11-21T10:45:40.981Z,66.20
2017-11-21T10:48:09.396Z,66.90
2017-11-21T10:50:37.129Z,67.00
2017-11-21T10:53:04.643Z,67.10
2017-11-21T10:55:32.584Z,66.90
2017-11-21T10:58:00.080Z,66.60
2017-11-21T11:00:27.600Z,66.90
2017-11-21T11:02:55.190Z,66.50
2017-11-21T11:05:22.710Z,66.80
2017-11-21T11:07:50.620Z,65.50
2017-11-21T11:10:18.198Z,65.40
2017-11-21T11:12:46.251Z,64.70
2017-11-21T11:15:13.776Z,65.20
2017-11-21T11:17:42.783Z,65.70
2017-11-21T11:20:11.456Z,64.90
2017-11-21T11:22:39.084Z,64.00
2017-11-21T11:25:06.581Z,64.90
2017-11-21T11:30:03.161Z,64.80
2017-11-21T11:32:31.204Z,64.90
2017-11-21T11:34:58.863Z,64.70
2017-11-21T11:37:27.233Z,64.90
2017-11-21T11:39:54.730Z,65.70
2017-11-21T11:42:22.247Z,66.10
2017-11-21T11:44:49.763Z,66.80
2017-11-21T11:47:18.055Z,66.90
2017-11-21T11:49:46.431Z,67.70
2017-11-21T11:52:14.108Z,67.40
2017-11-21T11:54:41.612Z,68.00
2017-11-21T11:57:09.525Z,68.20
2017-11-21T11:59:37.020Z,67.90
2017-11-21T12:02:04.533Z,67.90
2017-11-21T12:04:32.157Z,67.60
2017-11-21T12:06:59.683Z,67.90
2017-11-21T12:09:27.189Z,68.50
2017-11-21T12:11:55.489Z,69.10
2017-11-21T12:14:23.386Z,68.70
2017-11-21T12:16:50.915Z,68.80
2017-11-21T12:19:18.573Z,69.10
2017-11-21T12:21:46.501Z,69.70
2017-11-21T12:24:14.784Z,70.70
2017-11-21T12:26:43.600Z,70.10
2017-11-21T12:29:11.140Z,70.40
2017-11-21T12:31:39.805Z,70.20
2017-11-21T12:34:08.080Z,71.00
2017-11-21T12:36:36.372Z,71.50
2017-11-21T12:39:03.884Z,71.20
2017-11-21T12:41:31.407Z,71.70
2017-11-21T12:43:59.689Z,72.10
2017-11-21T12:46:28.132Z,72.20
2017-11-21T12:48:55.637Z,72.20
2017-11-21T12:51:23.264Z,72.60
2017-11-21T12:53:50.904Z,72.70
2017-11-21T12:56:19.216Z,72.60
2017-11-21T12:58:46.730Z,73.10
2017-11-21T13:01:14.623Z,73.40
2017-11-21T13:03:43.802Z,73.80
2017-11-21T13:06:12.275Z,73.90
2017-11-21T13:08:39.800Z,73.90
2017-11-21T13:13:36.252Z,74.40
2017-11-21T13:16:04.167Z,74.30
2017-11-21T13:18:31.774Z,74.60
2017-11-21T13:21:00.033Z,75.10
2017-11-21T13:23:28.440Z,75.30
2017-11-21T13:28:24.823Z,74.50
2017-11-21T13:30:53.102Z,74.90
2017-11-21T13:33:20.622Z,75.00
2017-11-21T13:35:48.148Z,75.10
2017-11-21T13:38:15.669Z,75.00
2017-11-21T13:40:43.296Z,74.90
2017-11-21T13:43:11.777Z,74.80
2017-11-21T13:45:39.416Z,74.70
2017-11-21T13:48:08.104Z,74.40
2017-11-21T13:50:36.032Z,74.40
2017-11-21T13:53:03.934Z,74.40
2017-11-21T13:55:31.464Z,74.00
2017-11-21T13:57:58.976Z,73.70
2017-11-21T14:00:26.608Z,73.60
2017-11-21T14:02:54.130Z,73.40
2017-11-21T14:05:23.984Z,74.10
2017-11-21T14:07:51.620Z,73.20
2017-11-21T14:10:19.131Z,72.60
2017-11-21T14:12:46.638Z,72.20
2017-11-21T14:15:14.603Z,72.10
2017-11-21T14:17:42.118Z,71.90
2017-11-21T14:20:10.128Z,72.30
2017-11-21T14:22:37.617Z,71.80
2017-11-21T14:25:05.236Z,71.50
2017-11-21T14:30:01.606Z,70.60
2017-11-21T14:34:57.980Z,69.10
2017-11-21T14:37:25.477Z,69.00
2017-11-21T14:39:53.022Z,69.10
2017-11-21T14:42:20.545Z,69.30
2017-11-21T14:44:48.970Z,69.00
2017-11-21T14:49:45.733Z,70.10
2017-11-21T14:52:13.252Z,70.60
2017-11-21T14:54:40.769Z,71.20
2017-11-21T14:57:08.319Z,71.40
2017-11-21T14:59:35.928Z,72.00
2017-11-21T15:02:03.452Z,72.80
2017-11-21T15:04:31.051Z,73.00
2017-11-21T15:06:58.579Z,73.00
2017-11-21T15:09:26.971Z,72.40
2017-11-21T15:11:54.655Z,71.80
2017-11-21T15:14:22.161Z,71.50
2017-11-21T15:16:50.447Z,73.00
2017-11-21T15:19:19.087Z,72.00
2017-11-21T15:21:47.501Z,72.90
2017-11-21T15:24:15.005Z,71.70
2017-11-21T15:26:42.533Z,70.90
2017-11-21T15:29:10.505Z,70.30
2017-11-21T15:31:38.156Z,71.10
2017-11-21T15:34:05.668Z,70.90
2017-11-21T15:36:33.204Z,71.10
2017-11-21T15:39:00.731Z,70.10
2017-11-21T15:41:28.391Z,69.10
2017-11-21T15:43:56.051Z,69.30
2017-11-21T15:48:52.597Z,68.10
2017-11-21T15:51:20.878Z,67.90
2017-11-21T15:58:47.038Z,67.60
2017-11-21T16:01:14.564Z,66.70
2017-11-21T16:03:42.492Z,67.10
2017-11-21T16:06:09.996Z,67.30
2017-11-21T16:08:37.554Z,66.50
2017-11-21T16:11:05.051Z,66.80
2017-11-21T16:13:32.667Z,66.10
2017-11-21T16:16:00.324Z,66.30
2017-11-21T16:18:27.832Z,65.70
2017-11-21T16:20:55.424Z,66.00
2017-11-21T16:23:22.940Z,65.50
2017-11-21T16:25:51.236Z,66.20
2017-11-21T16:28:20.251Z,65.80
2017-11-21T16:30:47.776Z,65.60
2017-11-21T16:33:16.426Z,65.60
2017-11-21T16:35:43.957Z,65.70
2017-11-21T16:38:11.463Z,65.30
2017-11-21T16:40:38.996Z,65.50
2017-11-21T16:43:08.020Z,65.30
2017-11-21T16:45:35.692Z,65.80
2017-11-21T16:48:03.212Z,65.80
2017-11-21T16:50:30.733Z,65.50
2017-11-21T16:52:59.740Z,65.50
2017-11-21T16:57:57.069Z,65.00
2017-11-21T17:00:24.592Z,64.60
2017-11-21T17:02:52.900Z,65.20
2017-11-21T17:12:48.128Z,64.50
2017-11-21T17:15:15.752Z,64.40
2017-11-21T17:17:43.248Z,64.40
2017-11-21T17:22:39.765Z,64.60
2017-11-21T17:25:07.695Z,64.10
2017-11-21T17:27:35.196Z,63.40
2017-11-21T17:30:03.497Z,64.70
2017-11-21T17:32:31.008Z,63.80
2017-11-21T17:34:58.568Z,63.90
2017-11-21T17:37:26.594Z,64.10
2017-11-21T17:39:54.495Z,63.80
2017-11-21T17:42:22.779Z,62.70
2017-11-21T17:44:50.303Z,63.60
2017-11-21T17:47:18.028Z,63.60
2017-11-21T17:49:45.551Z,63.60
2017-11-21T17:52:13.847Z,64.10
2017-11-21T17:54:41.428Z,63.30
2017-11-21T17:57:08.972Z,63.40
2017-11-21T17:59:36.494Z,63.30
2017-11-21T18:02:04.416Z,63.20
2017-11-21T18:04:31.909Z,63.00
2017-11-21T18:07:00.210Z,63.60
2017-11-21T18:09:27.770Z,63.30
2017-11-21T18:11:55.299Z,63.40
2017-11-21T18:14:22.808Z,62.70
2017-11-21T18:19:19.171Z,62.50
2017-11-21T18:29:13.771Z,62.30
2017-11-21T18:31:41.404Z,62.10
2017-11-21T18:34:08.920Z,62.10
2017-11-21T18:36:36.456Z,62.20
2017-11-21T18:39:03.964Z,62.10
2017-11-21T18:41:32.248Z,62.30
2017-11-21T18:44:00.550Z,62.70
2017-11-21T18:46:28.560Z,62.50
2017-11-21T18:48:56.108Z,61.90
2017-11-21T18:51:24.400Z,63.00
2017-11-21T18:53:52.699Z,62.00
2017-11-21T18:56:20.228Z,61.60
2017-11-21T18:58:48.164Z,62.10
2017-11-21T19:01:15.673Z,61.90
2017-11-21T19:03:43.225Z,62.30
2017-11-21T19:06:11.133Z,62.30
2017-11-21T19:08:38.675Z,62.20
2017-11-21T19:11:06.187Z,62.10
2017-11-21T19:13:34.528Z,62.00
2017-11-21T19:16:02.798Z,62.10
2017-11-21T19:18:30.303Z,61.20
2017-11-21T19:20:57.834Z,61.70
2017-11-21T19:23:26.114Z,61.50
2017-11-21T19:25:53.644Z,60.90
2017-11-21T19:28:21.568Z,60.70
2017-11-21T19:33:17.995Z,61.10
2017-11-21T19:35:45.547Z,61.00
2017-11-21T19:38:13.829Z,61.10
2017-11-21T19:40:41.357Z,61.20
2017-11-21T19:43:10.382Z,61.30
2017-11-21T19:45:38.317Z,60.70
2017-11-21T19:50:34.872Z,60.80
2017-11-21T19:53:03.148Z,60.70
2017-11-21T19:55:30.730Z,60.40
2017-11-21T19:58:00.030Z,60.70
2017-11-21T20:00:28.036Z,60.70
2017-11-21T20:02:56.004Z,60.40
2017-11-21T20:05:23.707Z,60.80
2017-11-21T20:07:51.243Z,60.40
2017-11-21T20:10:18.768Z,60.70
2017-11-21T20:15:15.212Z,60.80
2017-11-21T20:17:43.521Z,60.60
2017-11-21T20:20:11.808Z,59.80
2017-11-21T20:22:40.547Z,60.90
2017-11-21T20:25:08.256Z,60.60
2017-11-21T20:27:35.778Z,60.80
2017-11-21T20:32:33.621Z,60.50
2017-11-21T20:35:01.557Z,60.40
2017-11-21T20:37:30.592Z,60.10
2017-11-21T20:39:58.542Z,60.30
2017-11-21T20:42:26.477Z,60.60
2017-11-21T20:44:53.981Z,60.80
2017-11-21T20:47:22.674Z,61.10
2017-11-21T20:49:50.228Z,61.00
2017-11-21T20:52:19.268Z,60.90
2017-11-21T20:54:46.789Z,61.00
2017-11-21T20:57:14.340Z,61.10
2017-11-21T20:59:42.621Z,61.70
2017-11-21T21:02:10.162Z,61.40
2017-11-21T21:04:38.447Z,62.10
2017-11-21T21:07:06.751Z,61.50
2017-11-21T21:09:35.082Z,61.30
2017-11-21T21:12:03.411Z,61.40
2017-11-21T21:14:30.929Z,61.40
2017-11-21T21:16:58.499Z,61.20
2017-11-21T21:19:26.104Z,61.10
2017-11-21T21:21:53.624Z,61.50
2017-11-21T21:24:21.788Z,61.70
2017-11-21T21:26:49.756Z,61.20
2017-11-21T21:29:17.672Z,60.80
2017-11-21T21:31:45.196Z,61.30
2017-11-21T21:34:14.257Z,61.00
2017-11-21T21:36:41.767Z,61.20
2017-11-21T21:39:11.789Z,61.60
2017-11-21T21:41:39.701Z,61.20
2017-11-21T21:46:36.154Z,61.10
2017-11-21T21:49:03.815Z,62.00
2017-11-21T21:51:31.747Z,60.70
2017-11-21T21:53:59.309Z,62.30
2017-11-21T21:56:26.818Z,62.10
2017-11-21T21:58:54.452Z,62.00
2017-11-21T22:01:22.344Z,62.30
2017-11-21T22:03:49.976Z,62.30
2017-11-21T22:06:17.581Z,61.00
2017-11-21T22:08:45.756Z,60.90
2017-11-21T22:11:13.661Z,60.50
2017-11-21T22:13:41.203Z,61.90
2017-11-21T22:16:08.704Z,61.50
2017-11-21T22:18:36.633Z,62.30
2017-11-21T22:21:04.593Z,62.30
2017-11-21T22:23:32.100Z,62.30
2017-11-21T22:25:59.652Z,61.20
2017-11-21T22:28:27.932Z,61.40
2017-11-21T22:30:55.468Z,61.10
2017-11-21T22:33:22.975Z,61.30
2017-11-21T22:35:50.954Z,61.30
2017-11-21T22:38:19.264Z,61.20
2017-11-21T22:40:47.189Z,61.30
2017-11-21T22:43:15.095Z,61.40
2017-11-21T22:45:42.652Z,61.50
2017-11-21T22:50:40.199Z,61.30
2017-11-21T22:53:08.100Z,60.90
2017-11-21T22:55:35.619Z,60.90
2017-11-21T22:58:04.273Z,60.90
2017-11-21T23:00:31.847Z,61.10
2017-11-21T23:02:59.768Z,60.90
2017-11-21T23:05:28.142Z,61.10
2017-11-21T23:10:24.537Z,61.20
2017-11-21T23:12:52.459Z,61.20
2017-11-21T23:15:20.853Z,61.50
2017-11-21T23:17:48.773Z,62.10
2017-11-21T23:20:16.383Z,62.10
2017-11-21T23:22:45.055Z,62.20
2017-11-21T23:25:13.339Z,60.80
2017-11-21T23:27:41.653Z,60.70
2017-11-21T23:30:09.148Z,61.90
2017-11-21T23:32:37.960Z,61.90
2017-11-21T23:35:05.624Z,62.00
2017-11-21T23:37:34.137Z,62.20
2017-11-21T23:40:01.764Z,62.10
2017-11-21T23:42:30.427Z,61.90
2017-11-21T23:44:58.689Z,61.80
2017-11-21T23:47:26.969Z,61.60
2017-11-21T23:49:54.627Z,61.60
2017-11-21T23:54:51.181Z,61.70
2017-11-21T23:57:18.840Z,61.90
